Austin Tobin — WDG2935 — position and weather

sailwx.info

Track history (hours):
 
Tides and Currents Weather Stations Pressure Air Temp Water Temp Dewpoint Dewpoint Depression Visibility Wind Speed Wind Dir Waves Ship Positions

Austin Tobin

Owner: PORT IMPERIAL FERRY, WEEHAWKEN, NJ. More information available from US FCC via Universal Licensing System and Coast Guard Vessel Documentation Center.

Last reported at 2018-Jan-18 19:00 UTC. Time now 2018-Jan-18 19:37 UTC.
Position N 40°46' W 074°01'.

Length 21 m; draft 2 m.

Type: Passenger vessel. MMSI: 366834150.

Date/timePositionNaut miles runAvg speedWind from/ knotsBaromVisibWave heightAir tempDewpointWater temp
2018-Jan-18 19:00N 40°46' W 074°01'4 7.4
2018-Jan-18 18:30N 40°43' W 074°02'1 2.5
2018-Jan-18 18:00N 40°42' W 074°00'1 2.6
2018-Jan-18 17:31N 40°43' W 074°02'1 2.5
2018-Jan-18 16:59N 40°42' W 074°00'1 2.5
2018-Jan-18 16:30N 40°43' W 074°02'1 2.5
2018-Jan-18 16:01N 40°42' W 074°00'1 2.5
2018-Jan-18 15:31N 40°43' W 074°02'1 2.5
2018-Jan-18 15:00N 40°42' W 074°00'2 3.5
2018-Jan-18 14:30N 40°43' W 074°03'0 0.0
2018-Jan-18 14:00N 40°43' W 074°03'0 0.0
2018-Jan-18 13:30N 40°43' W 074°03'0 0.0
2018-Jan-18 13:00N 40°43' W 074°03'0 0.0
2018-Jan-18 12:30N 40°43' W 074°03'0 0.0
2018-Jan-18 12:00N 40°43' W 074°03'0 0.0
2018-Jan-18 11:30N 40°43' W 074°03'0 0.0
2018-Jan-18 11:00N 40°43' W 074°03'0 0.0
2018-Jan-18 10:30N 40°43' W 074°03'0 0.0
2018-Jan-18 02:48N 40°43' W 074°02'2 6.5
2018-Jan-18 02:30N 40°41' W 074°03'2 3.7
2018-Jan-18 02:01N 40°42' W 074°01'1 2.3
2018-Jan-18 01:30N 40°41' W 074°02'1 2.2
2018-Jan-18 01:01N 40°42' W 074°01'0 0.4
2018-Jan-17 23:58N 40°42' W 074°00'0 5.0
2018-Jan-17 23:57N 40°42' W 074°00'  
2018-Jan-12 15:01N 40°43' W 074°02'1 2.8
2018-Jan-12 14:30N 40°42' W 074°00'0 0.1
2018-Jan-12 14:01N 40°42' W 074°00'0 0.1
2018-Jan-12 13:30N 40°42' W 074°00'0 0.5
2018-Jan-12 13:00N 40°42' W 074°01'0 0.1
2018-Jan-12 12:30N 40°42' W 074°01'0 0.5
2018-Jan-12 12:00N 40°42' W 074°00'1 2.8
2018-Jan-12 11:30N 40°43' W 074°02'4 7.1
2018-Jan-12 11:00N 40°46' W 074°01'0 0.0
2018-Jan-12 01:26N 40°46' W 074°01'4 9.8
2018-Jan-12 01:01N 40°42' W 074°00'0 0.4
2018-Jan-12 00:29N 40°42' W 074°00'0 0.0
2018-Jan-12 00:00N 40°42' W 074°00'0 0.0
2018-Jan-11 23:29N 40°42' W 074°00'0 0.0
2018-Jan-11 22:58N 40°42' W 074°00'0 0.0
2018-Jan-11 22:28N 40°42' W 074°00'0 0.0
2018-Jan-11 21:58N 40°42' W 074°00'0 0.0
2018-Jan-11 21:30N 40°42' W 074°00'0 0.0
2018-Jan-11 20:59N 40°42' W 074°00'0 0.6
2018-Jan-11 20:31N 40°42' W 074°01'0 0.6
2018-Jan-11 20:00N 40°42' W 074°01'0 0.2
2018-Jan-11 19:31N 40°42' W 074°01'0 0.4
2018-Jan-11 19:01N 40°42' W 074°01'2 4.6
2018-Jan-11 18:30N 40°44' W 074°02'0 0.3
2018-Jan-11 18:00N 40°44' W 074°01'2 4.1
2018-Jan-11 17:31N 40°42' W 074°01'4 1.9
2018-Jan-11 15:15N 40°46' W 074°01'416.9
2018-Jan-11 15:01N 40°42' W 074°01'1 1.5
2018-Jan-11 14:30N 40°42' W 074°00'0 0.0
2018-Jan-11 14:00N 40°42' W 074°00'0 0.0
2018-Jan-11 13:30N 40°42' W 074°00'0 0.0
2018-Jan-11 13:00N 40°42' W 074°00'0 0.0
2018-Jan-11 12:30N 40°42' W 074°00'0 0.1
2018-Jan-11 12:00N 40°42' W 074°00'0 0.1
2018-Jan-11 11:30N 40°42' W 074°00'2 3.2
2018-Jan-11 11:01N 40°44' W 074°01'3 0.3
2018-Jan-11 01:24N 40°46' W 074°01'411.0
2018-Jan-11 01:01N 40°42' W 074°00'0 0.2
2018-Jan-11 00:30N 40°42' W 074°00'0 0.0
2018-Jan-11 00:00N 40°42' W 074°00'0 0.0
2018-Jan-10 23:31N 40°42' W 074°00'0 0.0
2018-Jan-10 23:01N 40°42' W 074°00'0 0.0
2018-Jan-10 22:30N 40°42' W 074°00'0 0.0
2018-Jan-10 21:58N 40°42' W 074°00'0 0.0
2018-Jan-10 21:29N 40°42' W 074°00'0 0.0
2018-Jan-10 21:00N 40°42' W 074°00'1 2.7
2018-Jan-10 20:30N 40°43' W 074°02'1 2.6
2018-Jan-10 20:00N 40°42' W 074°00'1 2.8
2018-Jan-10 19:30N 40°43' W 074°02'1 2.7
2018-Jan-10 19:00N 40°42' W 074°00'2 3.1
2018-Jan-10 18:31N 40°43' W 074°02'3 5.9
2018-Jan-10 18:00N 40°46' W 074°01'4 8.8
2018-Jan-10 17:30N 40°42' W 074°01'4 2.0
2018-Jan-10 15:26N 40°46' W 074°01'4 9.7
2018-Jan-10 15:00N 40°42' W 074°00'0 0.1
2018-Jan-10 14:28N 40°42' W 074°00'0 0.1
2018-Jan-10 14:00N 40°42' W 074°00'0 0.1
2018-Jan-10 13:28N 40°42' W 074°00'0 0.0
2018-Jan-10 13:00N 40°42' W 074°00'0 0.0
2018-Jan-10 12:31N 40°42' W 074°00'0 0.0
2018-Jan-10 12:00N 40°42' W 074°00'0 0.0
2018-Jan-10 11:31N 40°42' W 074°00'3 6.4
2018-Jan-10 11:00N 40°45' W 074°01'1 0.1
2018-Jan-10 01:26N 40°46' W 074°01'4 9.8
2018-Jan-10 01:00N 40°42' W 074°00'2 3.5
2018-Jan-10 00:30N 40°43' W 074°03'0 0.0
2018-Jan-10 00:01N 40°43' W 074°03'0 0.0
2018-Jan-09 23:31N 40°43' W 074°03'0 0.3
2018-Jan-09 23:01N 40°43' W 074°02'0 0.3
2018-Jan-09 22:30N 40°43' W 074°03'0 0.0
2018-Jan-09 22:00N 40°43' W 074°03'0 0.0
2018-Jan-09 21:30N 40°43' W 074°03'1 2.2
2018-Jan-09 21:00N 40°43' W 074°01'3 1.3
2018-Jan-09 18:55N 40°46' W 074°01'3 8.3
2018-Jan-09 18:31N 40°43' W 074°02'1 2.4
2018-Jan-09 18:00N 40°42' W 074°00'1 2.4
2018-Jan-09 17:30N 40°43' W 074°02'1 2.3
2018-Jan-09 17:01N 40°42' W 074°00'1 2.7
2018-Jan-09 16:30N 40°43' W 074°02'1 2.7
2018-Jan-09 16:01N 40°42' W 074°00'1 2.6
2018-Jan-09 15:30N 40°43' W 074°02'1 2.6
2018-Jan-09 15:00N 40°42' W 074°00'2 3.6
2018-Jan-09 14:30N 40°43' W 074°03'0 0.0
2018-Jan-09 14:00N 40°43' W 074°03'0 0.0
2018-Jan-09 13:30N 40°43' W 074°03'0 0.0
2018-Jan-09 13:00N 40°43' W 074°03'0 0.0
2018-Jan-09 12:30N 40°43' W 074°03'0 0.0
2018-Jan-09 12:00N 40°43' W 074°03'0 0.1
2018-Jan-09 11:30N 40°43' W 074°03'0 0.0
2018-Jan-09 11:00N 40°43' W 074°03'0 0.0
2018-Jan-09 10:30N 40°43' W 074°03'2 0.2
2018-Jan-09 02:42N 40°42' W 074°01'1 5.8
2018-Jan-09 02:30N 40°41' W 074°02'1 2.5
2018-Jan-09 02:00N 40°42' W 074°01'1 2.9
2018-Jan-09 01:30N 40°41' W 074°02'1 2.9
2018-Jan-09 01:01N 40°42' W 074°01'2 3.2
2018-Jan-09 00:31N 40°43' W 074°03'0 0.0
2018-Jan-09 00:00N 40°43' W 074°03'0 0.0
2018-Jan-08 23:31N 40°43' W 074°03'0 0.0
2018-Jan-08 23:01N 40°43' W 074°03'0 0.1
2018-Jan-08 22:30N 40°43' W 074°03'0 0.0
2018-Jan-08 22:00N 40°43' W 074°03'0 0.1
2018-Jan-08 21:30N 40°43' W 074°03'1 1.6
2018-Jan-08 21:01N 40°43' W 074°02'3 1.7
2018-Jan-08 19:21N 40°46' W 074°01'  
Track history (hours):
 
Tides and Currents Weather Stations Pressure Air Temp Water Temp Dewpoint Dewpoint Depression Visibility Wind Speed Wind Dir Waves Ship Positions

Austin Tobin

Owner: PORT IMPERIAL FERRY, WEEHAWKEN, NJ. More information available from US FCC via Universal Licensing System and Coast Guard Vessel Documentation Center.

Last reported at 2018-Jan-18 19:00 UTC. Time now 2018-Jan-18 19:37 UTC.
Position N 40°46' W 074°01'.

Length 21 m; draft 2 m.

Type: Passenger vessel. MMSI: 366834150.

Date/timePositionNaut miles runAvg speedWind from/ knotsBaromVisibWave heightAir tempDewpointWater temp
2018-Jan-18 19:00N 40°46' W 074°01'4 7.4
2018-Jan-18 18:30N 40°43' W 074°02'1 2.5
2018-Jan-18 18:00N 40°42' W 074°00'1 2.6
2018-Jan-18 17:31N 40°43' W 074°02'1 2.5
2018-Jan-18 16:59N 40°42' W 074°00'1 2.5
2018-Jan-18 16:30N 40°43' W 074°02'1 2.5
2018-Jan-18 16:01N 40°42' W 074°00'1 2.5
2018-Jan-18 15:31N 40°43' W 074°02'1 2.5
2018-Jan-18 15:00N 40°42' W 074°00'2 3.5
2018-Jan-18 14:30N 40°43' W 074°03'0 0.0
2018-Jan-18 14:00N 40°43' W 074°03'0 0.0
2018-Jan-18 13:30N 40°43' W 074°03'0 0.0
2018-Jan-18 13:00N 40°43' W 074°03'0 0.0
2018-Jan-18 12:30N 40°43' W 074°03'0 0.0
2018-Jan-18 12:00N 40°43' W 074°03'0 0.0
2018-Jan-18 11:30N 40°43' W 074°03'0 0.0
2018-Jan-18 11:00N 40°43' W 074°03'0 0.0
2018-Jan-18 10:30N 40°43' W 074°03'0 0.0
2018-Jan-18 02:48N 40°43' W 074°02'2 6.5
2018-Jan-18 02:30N 40°41' W 074°03'2 3.7
2018-Jan-18 02:01N 40°42' W 074°01'1 2.3
2018-Jan-18 01:30N 40°41' W 074°02'1 2.2
2018-Jan-18 01:01N 40°42' W 074°01'0 0.4
2018-Jan-17 23:58N 40°42' W 074°00'0 5.0
2018-Jan-17 23:57N 40°42' W 074°00'  
2018-Jan-12 15:01N 40°43' W 074°02'1 2.8
2018-Jan-12 14:30N 40°42' W 074°00'0 0.1
2018-Jan-12 14:01N 40°42' W 074°00'0 0.1
2018-Jan-12 13:30N 40°42' W 074°00'0 0.5
2018-Jan-12 13:00N 40°42' W 074°01'0 0.1
2018-Jan-12 12:30N 40°42' W 074°01'0 0.5
2018-Jan-12 12:00N 40°42' W 074°00'1 2.8
2018-Jan-12 11:30N 40°43' W 074°02'4 7.1
2018-Jan-12 11:00N 40°46' W 074°01'0 0.0
2018-Jan-12 01:26N 40°46' W 074°01'4 9.8
2018-Jan-12 01:01N 40°42' W 074°00'0 0.4
2018-Jan-12 00:29N 40°42' W 074°00'0 0.0
2018-Jan-12 00:00N 40°42' W 074°00'0 0.0
2018-Jan-11 23:29N 40°42' W 074°00'0 0.0
2018-Jan-11 22:58N 40°42' W 074°00'0 0.0
2018-Jan-11 22:28N 40°42' W 074°00'0 0.0
2018-Jan-11 21:58N 40°42' W 074°00'0 0.0
2018-Jan-11 21:30N 40°42' W 074°00'0 0.0
2018-Jan-11 20:59N 40°42' W 074°00'0 0.6
2018-Jan-11 20:31N 40°42' W 074°01'0 0.6
2018-Jan-11 20:00N 40°42' W 074°01'0 0.2
2018-Jan-11 19:31N 40°42' W 074°01'0 0.4
2018-Jan-11 19:01N 40°42' W 074°01'2 4.6
2018-Jan-11 18:30N 40°44' W 074°02'0 0.3
2018-Jan-11 18:00N 40°44' W 074°01'2 4.1
2018-Jan-11 17:31N 40°42' W 074°01'4 1.9
2018-Jan-11 15:15N 40°46' W 074°01'416.9
2018-Jan-11 15:01N 40°42' W 074°01'1 1.5
2018-Jan-11 14:30N 40°42' W 074°00'0 0.0
2018-Jan-11 14:00N 40°42' W 074°00'0 0.0
2018-Jan-11 13:30N 40°42' W 074°00'0 0.0
2018-Jan-11 13:00N 40°42' W 074°00'0 0.0
2018-Jan-11 12:30N 40°42' W 074°00'0 0.1
2018-Jan-11 12:00N 40°42' W 074°00'0 0.1
2018-Jan-11 11:30N 40°42' W 074°00'2 3.2
2018-Jan-11 11:01N 40°44' W 074°01'3 0.3
2018-Jan-11 01:24N 40°46' W 074°01'411.0
2018-Jan-11 01:01N 40°42' W 074°00'0 0.2
2018-Jan-11 00:30N 40°42' W 074°00'0 0.0
2018-Jan-11 00:00N 40°42' W 074°00'0 0.0
2018-Jan-10 23:31N 40°42' W 074°00'0 0.0
2018-Jan-10 23:01N 40°42' W 074°00'0 0.0
2018-Jan-10 22:30N 40°42' W 074°00'0 0.0
2018-Jan-10 21:58N 40°42' W 074°00'0 0.0
2018-Jan-10 21:29N 40°42' W 074°00'0 0.0
2018-Jan-10 21:00N 40°42' W 074°00'1 2.7
2018-Jan-10 20:30N 40°43' W 074°02'1 2.6
2018-Jan-10 20:00N 40°42' W 074°00'1 2.8
2018-Jan-10 19:30N 40°43' W 074°02'1 2.7
2018-Jan-10 19:00N 40°42' W 074°00'2 3.1
2018-Jan-10 18:31N 40°43' W 074°02'3 5.9
2018-Jan-10 18:00N 40°46' W 074°01'4 8.8
2018-Jan-10 17:30N 40°42' W 074°01'4 2.0
2018-Jan-10 15:26N 40°46' W 074°01'4 9.7
2018-Jan-10 15:00N 40°42' W 074°00'0 0.1
2018-Jan-10 14:28N 40°42' W 074°00'0 0.1
2018-Jan-10 14:00N 40°42' W 074°00'0 0.1
2018-Jan-10 13:28N 40°42' W 074°00'0 0.0
2018-Jan-10 13:00N 40°42' W 074°00'0 0.0
2018-Jan-10 12:31N 40°42' W 074°00'0 0.0
2018-Jan-10 12:00N 40°42' W 074°00'0 0.0
2018-Jan-10 11:31N 40°42' W 074°00'3 6.4
2018-Jan-10 11:00N 40°45' W 074°01'1 0.1
2018-Jan-10 01:26N 40°46' W 074°01'4 9.8
2018-Jan-10 01:00N 40°42' W 074°00'2 3.5
2018-Jan-10 00:30N 40°43' W 074°03'0 0.0
2018-Jan-10 00:01N 40°43' W 074°03'0 0.0
2018-Jan-09 23:31N 40°43' W 074°03'0 0.3
2018-Jan-09 23:01N 40°43' W 074°02'0 0.3
2018-Jan-09 22:30N 40°43' W 074°03'0 0.0
2018-Jan-09 22:00N 40°43' W 074°03'0 0.0
2018-Jan-09 21:30N 40°43' W 074°03'1 2.2
2018-Jan-09 21:00N 40°43' W 074°01'3 1.3
2018-Jan-09 18:55N 40°46' W 074°01'3 8.3
2018-Jan-09 18:31N 40°43' W 074°02'1 2.4
2018-Jan-09 18:00N 40°42' W 074°00'1 2.4
2018-Jan-09 17:30N 40°43' W 074°02'1 2.3
2018-Jan-09 17:01N 40°42' W 074°00'1 2.7
2018-Jan-09 16:30N 40°43' W 074°02'1 2.7
2018-Jan-09 16:01N 40°42' W 074°00'1 2.6
2018-Jan-09 15:30N 40°43' W 074°02'1 2.6
2018-Jan-09 15:00N 40°42' W 074°00'2 3.6
2018-Jan-09 14:30N 40°43' W 074°03'0 0.0
2018-Jan-09 14:00N 40°43' W 074°03'0 0.0
2018-Jan-09 13:30N 40°43' W 074°03'0 0.0
2018-Jan-09 13:00N 40°43' W 074°03'0 0.0
2018-Jan-09 12:30N 40°43' W 074°03'0 0.0
2018-Jan-09 12:00N 40°43' W 074°03'0 0.1
2018-Jan-09 11:30N 40°43' W 074°03'0 0.0
2018-Jan-09 11:00N 40°43' W 074°03'0 0.0
2018-Jan-09 10:30N 40°43' W 074°03'2 0.2
2018-Jan-09 02:42N 40°42' W 074°01'1 5.8
2018-Jan-09 02:30N 40°41' W 074°02'1 2.5
2018-Jan-09 02:00N 40°42' W 074°01'1 2.9
2018-Jan-09 01:30N 40°41' W 074°02'1 2.9
2018-Jan-09 01:01N 40°42' W 074°01'2 3.2
2018-Jan-09 00:31N 40°43' W 074°03'0 0.0
2018-Jan-09 00:00N 40°43' W 074°03'0 0.0
2018-Jan-08 23:31N 40°43' W 074°03'0 0.0
2018-Jan-08 23:01N 40°43' W 074°03'0 0.1
2018-Jan-08 22:30N 40°43' W 074°03'0 0.0
2018-Jan-08 22:00N 40°43' W 074°03'0 0.1
2018-Jan-08 21:30N 40°43' W 074°03'1 1.6
2018-Jan-08 21:01N 40°43' W 074°02'3 1.7
2018-Jan-08 19:21N 40°46' W 074°01'  

Dump ship's entire track history